sensor_id;sensor_type;location;lat;lon;timestamp;pressure;altitude;pressure_sealevel;temperature;humidity
10718;BME280;13513;42.700;23.124;2023-10-31T00:02:24;93132.22;;;15.54;68.90
10718;BME280;13513;42.700;23.124;2023-10-31T00:04:52;93127.44;;;15.48;68.94
10718;BME280;13513;42.700;23.124;2023-10-31T00:07:19;93134.60;;;15.50;68.89
10718;BME280;13513;42.700;23.124;2023-10-31T00:09:46;93125.57;;;15.51;68.54
10718;BME280;13513;42.700;23.124;2023-10-31T00:12:14;93127.69;;;15.49;68.94
10718;BME280;13513;42.700;23.124;2023-10-31T00:14:41;93126.92;;;15.39;69.68
10718;BME280;13513;42.700;23.124;2023-10-31T00:17:09;93124.27;;;15.39;69.53
10718;BME280;13513;42.700;23.124;2023-10-31T00:19:36;93123.98;;;15.28;70.23
10718;BME280;13513;42.700;23.124;2023-10-31T00:22:04;93117.86;;;15.32;69.93
10718;BME280;13513;42.700;23.124;2023-10-31T00:24:31;93113.06;;;15.39;69.42
10718;BME280;13513;42.700;23.124;2023-10-31T00:26:59;93117.31;;;15.33;69.96
10718;BME280;13513;42.700;23.124;2023-10-31T00:29:26;93113.57;;;15.34;70.13
10718;BME280;13513;42.700;23.124;2023-10-31T00:31:54;93109.63;;;15.14;70.94
10718;BME280;13513;42.700;23.124;2023-10-31T00:34:21;93113.89;;;15.20;69.93
10718;BME280;13513;42.700;23.124;2023-10-31T00:36:49;93103.55;;;14.96;68.54
10718;BME280;13513;42.700;23.124;2023-10-31T00:39:17;93103.55;;;14.76;70.83
10718;BME280;13513;42.700;23.124;2023-10-31T00:41:45;93101.17;;;14.62;71.62
10718;BME280;13513;42.700;23.124;2023-10-31T00:44:13;93108.33;;;14.49;72.36
10718;BME280;13513;42.700;23.124;2023-10-31T00:46:41;93097.16;;;14.34;73.24
10718;BME280;13513;42.700;23.124;2023-10-31T00:49:08;93093.38;;;14.15;74.75
10718;BME280;13513;42.700;23.124;2023-10-31T00:51:35;93095.77;;;14.09;76.34
10718;BME280;13513;42.700;23.124;2023-10-31T00:54:03;93098.91;;;13.94;78.26
10718;BME280;13513;42.700;23.124;2023-10-31T00:56:30;93095.43;;;13.81;80.32
10718;BME280;13513;42.700;23.124;2023-10-31T00:58:58;93092.73;;;13.76;82.00
10718;BME280;13513;42.700;23.124;2023-10-31T01:01:25;93086.14;;;13.86;81.36
10718;BME280;13513;42.700;23.124;2023-10-31T01:03:53;93083.22;;;13.85;82.22
10718;BME280;13513;42.700;23.124;2023-10-31T01:06:20;93085.36;;;13.88;81.89
10718;BME280;13513;42.700;23.124;2023-10-31T01:08:48;93083.23;;;13.92;82.00
10718;BME280;13513;42.700;23.124;2023-10-31T01:11:15;93082.45;;;13.97;81.75
10718;BME280;13513;42.700;23.124;2023-10-31T01:13:42;93087.80;;;14.14;80.82
10718;BME280;13513;42.700;23.124;2023-10-31T01:16:10;93080.66;;;14.30;79.48
10718;BME280;13513;42.700;23.124;2023-10-31T01:18:37;93081.20;;;14.39;78.50
10718;BME280;13513;42.700;23.124;2023-10-31T01:21:05;93074.30;;;14.53;77.33
10718;BME280;13513;42.700;23.124;2023-10-31T01:23:32;93068.97;;;14.58;76.28
10718;BME280;13513;42.700;23.124;2023-10-31T01:26:00;93064.47;;;14.69;75.15
10718;BME280;13513;42.700;23.124;2023-10-31T01:28:27;93064.45;;;14.66;74.75
10718;BME280;13513;42.700;23.124;2023-10-31T01:30:54;93056.75;;;14.70;74.05
10718;BME280;13513;42.700;23.124;2023-10-31T01:33:22;93058.31;;;14.88;72.71
10718;BME280;13513;42.700;23.124;2023-10-31T01:35:49;93060.45;;;14.91;72.14
10718;BME280;13513;42.700;23.124;2023-10-31T01:38:17;93062.61;;;14.74;72.58
10718;BME280;13513;42.700;23.124;2023-10-31T01:40:48;93060.21;;;14.73;73.01
10718;BME280;13513;42.700;23.124;2023-10-31T01:43:14;93052.73;;;14.77;72.70
10718;BME280;13513;42.700;23.124;2023-10-31T01:45:42;93053.80;;;14.79;72.67
10718;BME280;13513;42.700;23.124;2023-10-31T01:48:10;93052.75;;;14.82;71.98
10718;BME280;13513;42.700;23.124;2023-10-31T01:50:37;93053.80;;;14.79;72.54
10718;BME280;13513;42.700;23.124;2023-10-31T01:53:05;93045.31;;;14.77;73.22
10718;BME280;13513;42.700;23.124;2023-10-31T01:55:33;93052.74;;;14.75;73.89
10718;BME280;13513;42.700;23.124;2023-10-31T01:58:01;93051.14;;;14.79;73.59
10718;BME280;13513;42.700;23.124;2023-10-31T02:00:28;93043.45;;;14.67;74.51
10718;BME280;13513;42.700;23.124;2023-10-31T02:02:56;93046.91;;;14.75;73.98
10718;BME280;13513;42.700;23.124;2023-10-31T02:05:25;93043.98;;;14.54;75.15
10718;BME280;13513;42.700;23.124;2023-10-31T02:07:54;93045.84;;;14.74;74.26
10718;BME280;13513;42.700;23.124;2023-10-31T02:10:21;93042.37;;;14.71;74.41
10718;BME280;13513;42.700;23.124;2023-10-31T02:12:49;93042.63;;;14.82;74.36
10718;BME280;13513;42.700;23.124;2023-10-31T02:15:16;93041.03;;;14.83;74.00
10718;BME280;13513;42.700;23.124;2023-10-31T02:17:44;93028.77;;;15.00;72.95
10718;BME280;13513;42.700;23.124;2023-10-31T02:20:11;93028.26;;;14.90;73.04
10718;BME280;13513;42.700;23.124;2023-10-31T02:22:39;93027.73;;;14.76;73.92
10718;BME280;13513;42.700;23.124;2023-10-31T02:25:18;93028.27;;;14.80;73.77
10718;BME280;13513;42.700;23.124;2023-10-31T02:27:47;93031.20;;;14.74;74.45
10718;BME280;13513;42.700;23.124;2023-10-31T02:30:14;93034.41;;;14.56;75.26
10718;BME280;13513;42.700;23.124;2023-10-31T02:32:42;93026.72;;;14.59;74.53
10718;BME280;13513;42.700;23.124;2023-10-31T02:35:09;93035.23;;;14.36;77.08
10718;BME280;13513;42.700;23.124;2023-10-31T02:37:37;93029.09;;;14.43;76.37
10718;BME280;13513;42.700;23.124;2023-10-31T02:40:05;93036.80;;;14.30;77.46
10718;BME280;13513;42.700;23.124;2023-10-31T02:42:33;93039.70;;;14.16;79.41
10718;BME280;13513;42.700;23.124;2023-10-31T02:45:00;93036.77;;;13.97;79.40
10718;BME280;13513;42.700;23.124;2023-10-31T02:47:28;93037.22;;;13.67;82.73
10718;BME280;13513;42.700;23.124;2023-10-31T02:49:56;93029.72;;;13.44;85.00
10718;BME280;13513;42.700;23.124;2023-10-31T02:52:23;93030.14;;;13.16;88.30
10718;BME280;13513;42.700;23.124;2023-10-31T02:54:51;93030.89;;;13.06;89.96
10718;BME280;13513;42.700;23.124;2023-10-31T02:57:18;93035.37;;;13.01;90.57
10718;BME280;13513;42.700;23.124;2023-10-31T02:59:46;93026.25;;;12.89;92.14
10718;BME280;13513;42.700;23.124;2023-10-31T03:02:13;93033.38;;;12.81;93.50
10718;BME280;13513;42.700;23.124;2023-10-31T03:04:41;93027.80;;;12.78;93.84
10718;BME280;13513;42.700;23.124;2023-10-31T03:07:08;93033.06;;;12.70;94.56
10718;BME280;13513;42.700;23.124;2023-10-31T03:09:36;93019.47;;;12.59;96.04
10718;BME280;13513;42.700;23.124;2023-10-31T03:12:03;93021.19;;;12.39;97.61
10718;BME280;13513;42.700;23.124;2023-10-31T03:14:31;93024.38;;;12.43;97.10
10718;BME280;13513;42.700;23.124;2023-10-31T03:16:58;93011.09;;;12.38;97.14
10718;BME280;13513;42.700;23.124;2023-10-31T03:19:26;93017.34;;;12.22;98.25
10718;BME280;13513;42.700;23.124;2023-10-31T03:21:54;93022.00;;;12.07;99.53
10718;BME280;13513;42.700;23.124;2023-10-31T03:24:21;93019.35;;;12.07;99.59
10718;BME280;13513;42.700;23.124;2023-10-31T03:26:48;93026.05;;;11.86;100.00
10718;BME280;13513;42.700;23.124;2023-10-31T03:29:16;93025.98;;;11.81;100.00
10718;BME280;13513;42.700;23.124;2023-10-31T03:31:45;93029.80;;;11.66;100.00
10718;BME280;13513;42.700;23.124;2023-10-31T03:34:13;93029.58;;;11.46;100.00
10718;BME280;13513;42.700;23.124;2023-10-31T03:36:40;93023.53;;;11.24;100.00
10718;BME280;13513;42.700;23.124;2023-10-31T03:39:08;93020.46;;;11.10;100.00
10718;BME280;13513;42.700;23.124;2023-10-31T03:41:36;93021.89;;;10.99;100.00
10718;BME280;13513;42.700;23.124;2023-10-31T03:44:03;93021.57;;;10.93;100.00
10718;BME280;13513;42.700;23.124;2023-10-31T03:46:31;93019.05;;;10.84;100.00
10718;BME280;13513;42.700;23.124;2023-10-31T03:48:58;93011.80;;;10.74;100.00
10718;BME280;13513;42.700;23.124;2023-10-31T03:51:26;93008.61;;;10.72;100.00
10718;BME280;13513;42.700;23.124;2023-10-31T03:53:53;93004.02;;;10.65;100.00
10718;BME280;13513;42.700;23.124;2023-10-31T03:56:20;93012.10;;;10.56;100.00
10718;BME280;13513;42.700;23.124;2023-10-31T03:58:48;93005.08;;;10.64;100.00
10718;BME280;13513;42.700;23.124;2023-10-31T04:01:16;92997.69;;;10.47;100.00
10718;BME280;13513;42.700;23.124;2023-10-31T04:03:44;92998.83;;;10.35;100.00
10718;BME280;13513;42.700;23.124;2023-10-31T04:06:11;92998.95;;;10.42;100.00
10718;BME280;13513;42.700;23.124;2023-10-31T04:08:39;92995.05;;;10.47;100.00
10718;BME280;13513;42.700;23.124;2023-10-31T04:11:07;92998.50;;;10.48;100.00
10718;BME280;13513;42.700;23.124;2023-10-31T04:13:34;92991.69;;;10.52;100.00
10718;BME280;13513;42.700;23.124;2023-10-31T04:16:02;92995.05;;;10.47;100.00
10718;BME280;13513;42.700;23.124;2023-10-31T04:18:29;93001.02;;;10.40;100.00
10718;BME280;13513;42.700;23.124;2023-10-31T04:20:56;93004.92;;;10.35;100.00
10718;BME280;13513;42.700;23.124;2023-10-31T04:23:24;92992.16;;;10.30;100.00
10718;BME280;13513;42.700;23.124;2023-10-31T04:25:52;92996.13;;;10.30;100.00
10718;BME280;13513;42.700;23.124;2023-10-31T04:28:19;92993.21;;;10.29;100.00
10718;BME280;13513;42.700;23.124;2023-10-31T04:30:47;92998.88;;;10.18;100.00
10718;BME280;13513;42.700;23.124;2023-10-31T04:33:14;92996.90;;;10.28;100.00
10718;BME280;13513;42.700;23.124;2023-10-31T04:35:41;92991.38;;;10.29;100.00
10718;BME280;13513;42.700;23.124;2023-10-31T04:38:09;93000.89;;;10.30;100.00
10718;BME280;13513;42.700;23.124;2023-10-31T04:40:36;93003.39;;;10.39;100.00
10718;BME280;13513;42.700;23.124;2023-10-31T04:43:04;93006.27;;;10.38;100.00
10718;BME280;13513;42.700;23.124;2023-10-31T04:45:31;93008.91;;;10.38;100.00
10718;BME280;13513;42.700;23.124;2023-10-31T04:47:59;93014.83;;;10.45;100.00
10718;BME280;13513;42.700;23.124;2023-10-31T04:50:26;93008.52;;;10.48;100.00
10718;BME280;13513;42.700;23.124;2023-10-31T04:52:53;92998.34;;;10.57;100.00
10718;BME280;13513;42.700;23.124;2023-10-31T04:55:21;92999.58;;;10.49;100.00
10718;BME280;13513;42.700;23.124;2023-10-31T04:57:48;92998.11;;;10.58;100.00
10718;BME280;13513;42.700;23.124;2023-10-31T05:00:16;93000.81;;;10.63;100.00
10718;BME280;13513;42.700;23.124;2023-10-31T05:02:44;93003.99;;;10.63;100.00
10718;BME280;13513;42.700;23.124;2023-10-31T05:05:11;92994.83;;;10.70;100.00
10718;BME280;13513;42.700;23.124;2023-10-31T05:07:39;92998.07;;;10.75;100.00
10718;BME280;13513;42.700;23.124;2023-10-31T05:10:07;92998.70;;;10.82;100.00
10718;BME280;13513;42.700;23.124;2023-10-31T05:12:36;93000.52;;;10.81;100.00
10718;BME280;13513;42.700;23.124;2023-10-31T05:15:04;93003.82;;;10.91;100.00
10718;BME280;13513;42.700;23.124;2023-10-31T05:17:32;93001.22;;;11.17;100.00
10718;BME280;13513;42.700;23.124;2023-10-31T05:19:59;93006.19;;;11.35;100.00
10718;BME280;13513;42.700;23.124;2023-10-31T05:22:27;93006.30;;;11.45;100.00
10718;BME280;13513;42.700;23.124;2023-10-31T05:24:54;93003.70;;;11.74;100.00
10718;BME280;13513;42.700;23.124;2023-10-31T05:27:21;93004.86;;;11.83;100.00
10718;BME280;13513;42.700;23.124;2023-10-31T05:29:49;92988.28;;;11.95;100.00
10718;BME280;13513;42.700;23.124;2023-10-31T05:32:16;92989.73;;;11.81;100.00
10718;BME280;13513;42.700;23.124;2023-10-31T05:34:44;92988.36;;;11.74;100.00
10718;BME280;13513;42.700;23.124;2023-10-31T05:37:11;92998.59;;;11.65;100.00
10718;BME280;13513;42.700;23.124;2023-10-31T05:39:39;93005.47;;;11.66;100.00
10718;BME280;13513;42.700;23.124;2023-10-31T05:42:06;93025.41;;;11.74;100.00
10718;BME280;13513;42.700;23.124;2023-10-31T05:44:34;93026.48;;;12.07;100.00
10718;BME280;13513;42.700;23.124;2023-10-31T05:47:02;93024.47;;;12.19;100.00
10718;BME280;13513;42.700;23.124;2023-10-31T05:49:30;93023.69;;;12.18;100.00
10718;BME280;13513;42.700;23.124;2023-10-31T05:51:57;93032.91;;;12.50;100.00
10718;BME280;13513;42.700;23.124;2023-10-31T05:54:25;93035.66;;;12.26;100.00
10718;BME280;13513;42.700;23.124;2023-10-31T05:56:52;93051.41;;;12.40;100.00
10718;BME280;13513;42.700;23.124;2023-10-31T05:59:19;93054.76;;;12.28;100.00
10718;BME280;13513;42.700;23.124;2023-10-31T06:01:47;93065.84;;;12.23;100.00
10718;BME280;13513;42.700;23.124;2023-10-31T06:04:16;93061.14;;;11.74;100.00
10718;BME280;13513;42.700;23.124;2023-10-31T06:06:44;93063.57;;;11.35;100.00
10718;BME280;13513;42.700;23.124;2023-10-31T06:09:11;93059.91;;;11.36;100.00
10718;BME280;13513;42.700;23.124;2023-10-31T06:11:43;93060.78;;;11.44;100.00
10718;BME280;13513;42.700;23.124;2023-10-31T06:14:11;93060.66;;;11.34;100.00
10718;BME280;13513;42.700;23.124;2023-10-31T06:16:42;93066.16;;;11.30;100.00
10718;BME280;13513;42.700;23.124;2023-10-31T06:19:10;93064.19;;;11.42;100.00
10718;BME280;13513;42.700;23.124;2023-10-31T06:21:38;93053.77;;;11.57;100.00
10718;BME280;13513;42.700;23.124;2023-10-31T06:24:06;93057.48;;;11.56;100.00
10718;BME280;13513;42.700;23.124;2023-10-31T06:26:34;93044.78;;;11.58;100.00
10718;BME280;13513;42.700;23.124;2023-10-31T06:29:01;93053.23;;;11.55;100.00
10718;BME280;13513;42.700;23.124;2023-10-31T06:31:30;93054.55;;;11.76;100.00
10718;BME280;13513;42.700;23.124;2023-10-31T06:33:57;93046.80;;;11.96;100.00
10718;BME280;13513;42.700;23.124;2023-10-31T06:36:24;93048.09;;;11.94;100.00
10718;BME280;13513;42.700;23.124;2023-10-31T06:38:52;93034.91;;;12.31;100.00
10718;BME280;13513;42.700;23.124;2023-10-31T06:41:19;93041.66;;;12.92;100.00
10718;BME280;13513;42.700;23.124;2023-10-31T06:43:47;93034.95;;;14.45;97.66
10718;BME280;13513;42.700;23.124;2023-10-31T06:46:14;93042.78;;;15.35;85.27
10718;BME280;13513;42.700;23.124;2023-10-31T06:48:42;93046.17;;;16.04;73.87
10718;BME280;13513;42.700;23.124;2023-10-31T06:51:09;93043.69;;;16.59;70.59
10718;BME280;13513;42.700;23.124;2023-10-31T06:53:37;93042.06;;;17.67;63.25
10718;BME280;13513;42.700;23.124;2023-10-31T06:56:04;93050.86;;;19.13;56.67
10718;BME280;13513;42.700;23.124;2023-10-31T06:58:32;93050.97;;;20.66;49.83
10718;BME280;13513;42.700;23.124;2023-10-31T07:00:59;93044.82;;;21.70;45.76
10718;BME280;13513;42.700;23.124;2023-10-31T07:03:27;93032.34;;;20.94;46.98
10718;BME280;13513;42.700;23.124;2023-10-31T07:05:54;93040.59;;;20.15;48.46
10718;BME280;13513;42.700;23.124;2023-10-31T07:08:23;93032.06;;;19.59;50.41
10718;BME280;13513;42.700;23.124;2023-10-31T07:10:50;93026.81;;;19.68;50.97
10718;BME280;13513;42.700;23.124;2023-10-31T07:13:18;93031.61;;;19.95;50.17
10718;BME280;13513;42.700;23.124;2023-10-31T07:15:45;93030.75;;;19.97;51.31
10718;BME280;13513;42.700;23.124;2023-10-31T07:18:13;93021.95;;;21.51;46.71
10718;BME280;13513;42.700;23.124;2023-10-31T07:20:41;93018.42;;;22.37;43.69
10718;BME280;13513;42.700;23.124;2023-10-31T07:23:08;93016.14;;;22.84;43.26
10718;BME280;13513;42.700;23.124;2023-10-31T07:25:36;93014.11;;;22.19;44.17
10718;BME280;13513;42.700;23.124;2023-10-31T07:28:03;93015.84;;;21.78;44.52
10718;BME280;13513;42.700;23.124;2023-10-31T07:30:31;93015.16;;;23.14;42.08
10718;BME280;13513;42.700;23.124;2023-10-31T07:32:58;93017.97;;;24.04;40.76
10718;BME280;13513;42.700;23.124;2023-10-31T07:35:26;93010.78;;;25.75;37.80
10718;BME280;13513;42.700;23.124;2023-10-31T07:37:54;93015.18;;;27.04;35.32
10718;BME280;13513;42.700;23.124;2023-10-31T07:40:21;93018.19;;;25.54;36.75
10718;BME280;13513;42.700;23.124;2023-10-31T07:42:50;93020.76;;;24.65;38.63
10718;BME280;13513;42.700;23.124;2023-10-31T07:45:17;93019.18;;;25.44;37.54
10718;BME280;13513;42.700;23.124;2023-10-31T07:47:45;93018.65;;;24.97;38.21
10718;BME280;13513;42.700;23.124;2023-10-31T07:50:12;93019.53;;;25.22;38.26
10718;BME280;13513;42.700;23.124;2023-10-31T07:52:40;93017.05;;;23.77;40.50
10718;BME280;13513;42.700;23.124;2023-10-31T07:55:07;93014.28;;;24.78;38.75
10718;BME280;13513;42.700;23.124;2023-10-31T07:57:36;93016.52;;;27.37;34.61
10718;BME280;13513;42.700;23.124;2023-10-31T08:00:08;93017.27;;;27.65;33.76
10718;BME280;13513;42.700;23.124;2023-10-31T08:02:33;93005.95;;;26.35;36.09
10718;BME280;13513;42.700;23.124;2023-10-31T08:05:01;93009.67;;;26.94;35.46
10718;BME280;13513;42.700;23.124;2023-10-31T08:07:28;93004.39;;;29.37;31.85
10718;BME280;13513;42.700;23.124;2023-10-31T08:09:56;93002.03;;;29.07;32.02
10718;BME280;13513;42.700;23.124;2023-10-31T08:12:24;93005.51;;;29.74;31.03
10718;BME280;13513;42.700;23.124;2023-10-31T08:14:51;92990.38;;;30.48;30.00
10718;BME280;13513;42.700;23.124;2023-10-31T08:17:19;92988.86;;;31.72;28.24
10718;BME280;13513;42.700;23.124;2023-10-31T08:19:46;92987.06;;;32.77;26.88
10718;BME280;13513;42.700;23.124;2023-10-31T08:22:15;92977.79;;;32.92;25.97
10718;BME280;13513;42.700;23.124;2023-10-31T08:24:43;92980.88;;;33.32;25.73
10718;BME280;13513;42.700;23.124;2023-10-31T08:27:11;92978.51;;;33.82;25.19
10718;BME280;13513;42.700;23.124;2023-10-31T08:29:39;92967.57;;;32.08;27.09
10718;BME280;13513;42.700;23.124;2023-10-31T08:32:06;92959.77;;;32.91;25.74
10718;BME280;13513;42.700;23.124;2023-10-31T08:34:33;92970.64;;;33.11;25.80
10718;BME280;13513;42.700;23.124;2023-10-31T08:37:01;92950.39;;;32.62;26.50
10718;BME280;13513;42.700;23.124;2023-10-31T08:39:28;92954.22;;;31.43;27.88
10718;BME280;13513;42.700;23.124;2023-10-31T08:41:58;92952.60;;;31.06;28.15
10718;BME280;13513;42.700;23.124;2023-10-31T08:44:26;92940.63;;;32.30;26.90
10718;BME280;13513;42.700;23.124;2023-10-31T08:46:54;92935.64;;;32.46;26.94
10718;BME280;13513;42.700;23.124;2023-10-31T08:49:21;92947.62;;;30.98;28.92
10718;BME280;13513;42.700;23.124;2023-10-31T08:51:49;92926.09;;;28.93;31.36
10718;BME280;13513;42.700;23.124;2023-10-31T08:54:16;92920.53;;;27.51;32.98
10718;BME280;13513;42.700;23.124;2023-10-31T08:56:44;92919.08;;;26.83;35.52
10718;BME280;13513;42.700;23.124;2023-10-31T08:59:11;92919.95;;;25.36;36.30
10718;BME280;13513;42.700;23.124;2023-10-31T09:01:39;92902.84;;;23.85;38.47
10718;BME280;13513;42.700;23.124;2023-10-31T09:04:07;92902.78;;;23.21;41.04
10718;BME280;13513;42.700;23.124;2023-10-31T09:06:34;92890.20;;;22.87;36.89
10718;BME280;13513;42.700;23.124;2023-10-31T09:09:02;92889.64;;;22.56;40.41
10718;BME280;13513;42.700;23.124;2023-10-31T09:11:30;92900.64;;;22.57;40.13
10718;BME280;13513;42.700;23.124;2023-10-31T09:13:57;92891.86;;;22.45;37.19
10718;BME280;13513;42.700;23.124;2023-10-31T09:16:25;92900.19;;;21.95;37.18
10718;BME280;13513;42.700;23.124;2023-10-31T09:18:52;92887.81;;;22.37;35.65
10718;BME280;13513;42.700;23.124;2023-10-31T09:21:20;92887.50;;;22.38;35.83
10718;BME280;13513;42.700;23.124;2023-10-31T09:23:48;92876.76;;;22.13;35.01
10718;BME280;13513;42.700;23.124;2023-10-31T09:26:15;92880.06;;;21.93;34.42
10718;BME280;13513;42.700;23.124;2023-10-31T09:28:44;92871.14;;;21.95;34.34
10718;BME280;13513;42.700;23.124;2023-10-31T09:31:13;92875.08;;;21.52;34.82
10718;BME280;13513;42.700;23.124;2023-10-31T09:33:40;92866.50;;;21.25;35.64
10718;BME280;13513;42.700;23.124;2023-10-31T09:36:08;92861.52;;;21.01;35.37
10718;BME280;13513;42.700;23.124;2023-10-31T09:38:36;92864.86;;;21.07;35.68
10718;BME280;13513;42.700;23.124;2023-10-31T09:41:04;92858.68;;;21.06;36.33
10718;BME280;13513;42.700;23.124;2023-10-31T09:43:32;92853.89;;;21.42;35.58
10718;BME280;13513;42.700;23.124;2023-10-31T09:45:59;92853.05;;;21.61;34.97
10718;BME280;13513;42.700;23.124;2023-10-31T09:48:27;92839.91;;;21.60;34.43
10718;BME280;13513;42.700;23.124;2023-10-31T09:50:56;92838.55;;;21.51;34.50
10718;BME280;13513;42.700;23.124;2023-10-31T09:53:24;92831.16;;;21.01;34.27
10718;BME280;13513;42.700;23.124;2023-10-31T09:55:51;92823.36;;;21.02;34.74
10718;BME280;13513;42.700;23.124;2023-10-31T09:58:20;92815.22;;;21.41;34.21
10718;BME280;13513;42.700;23.124;2023-10-31T10:00:47;92821.70;;;21.40;33.52
10718;BME280;13513;42.700;23.124;2023-10-31T10:03:16;92811.41;;;21.42;33.29
10718;BME280;13513;42.700;23.124;2023-10-31T10:05:44;92815.38;;;21.36;33.40
10718;BME280;13513;42.700;23.124;2023-10-31T10:08:14;92800.01;;;21.19;34.18
10718;BME280;13513;42.700;23.124;2023-10-31T10:10:42;92797.68;;;21.07;34.36
10718;BME280;13513;42.700;23.124;2023-10-31T10:13:10;92790.75;;;21.23;34.72
10718;BME280;13513;42.700;23.124;2023-10-31T10:15:46;92787.55;;;21.32;33.50
10718;BME280;13513;42.700;23.124;2023-10-31T10:18:32;92795.86;;;21.67;33.52
10718;BME280;13513;42.700;23.124;2023-10-31T10:21:03;92785.08;;;22.01;33.19
10718;BME280;13513;42.700;23.124;2023-10-31T10:23:32;92785.74;;;21.89;32.20
10718;BME280;13513;42.700;23.124;2023-10-31T10:26:01;92772.28;;;21.98;32.28
10718;BME280;13513;42.700;23.124;2023-10-31T10:28:28;92772.53;;;22.30;32.17
10718;BME280;13513;42.700;23.124;2023-10-31T10:30:56;92773.27;;;21.76;31.68
10718;BME280;13513;42.700;23.124;2023-10-31T10:33:23;92757.41;;;21.83;32.60
10718;BME280;13513;42.700;23.124;2023-10-31T10:35:51;92745.08;;;21.65;32.48
10718;BME280;13513;42.700;23.124;2023-10-31T10:38:19;92729.46;;;21.99;31.93
10718;BME280;13513;42.700;23.124;2023-10-31T10:40:48;92718.27;;;22.34;31.67
10718;BME280;13513;42.700;23.124;2023-10-31T10:43:20;92728.45;;;22.20;31.14
10718;BME280;13513;42.700;23.124;2023-10-31T10:45:54;92723.06;;;21.89;31.36
10718;BME280;13513;42.700;23.124;2023-10-31T10:48:20;92726.64;;;21.78;31.16
10718;BME280;13513;42.700;23.124;2023-10-31T10:50:57;92722.56;;;21.72;31.28
10718;BME280;13513;42.700;23.124;2023-10-31T10:53:23;92731.33;;;21.33;31.09
10718;BME280;13513;42.700;23.124;2023-10-31T10:55:56;92739.06;;;21.60;30.83
10718;BME280;13513;42.700;23.124;2023-10-31T10:58:44;92722.84;;;21.20;29.92
10718;BME280;13513;42.700;23.124;2023-10-31T11:01:11;92725.94;;;21.07;29.96
10718;BME280;13513;42.700;23.124;2023-10-31T11:03:40;92703.88;;;21.59;30.23
10718;BME280;13513;42.700;23.124;2023-10-31T11:06:09;92707.34;;;21.68;29.25
10718;BME280;13513;42.700;23.124;2023-10-31T11:08:37;92702.74;;;21.85;28.79
10718;BME280;13513;42.700;23.124;2023-10-31T11:11:06;92711.28;;;21.70;29.03
10718;BME280;13513;42.700;23.124;2023-10-31T11:13:35;92697.78;;;21.56;29.67
10718;BME280;13513;42.700;23.124;2023-10-31T11:16:06;92701.81;;;21.73;29.54
10718;BME280;13513;42.700;23.124;2023-10-31T11:18:33;92689.94;;;21.74;29.48
10718;BME280;13513;42.700;23.124;2023-10-31T11:21:01;92681.59;;;21.41;29.97
10718;BME280;13513;42.700;23.124;2023-10-31T11:23:29;92686.48;;;21.48;30.46
10718;BME280;13513;42.700;23.124;2023-10-31T11:25:56;92670.21;;;21.36;30.56
10718;BME280;13513;42.700;23.124;2023-10-31T11:28:25;92675.02;;;21.36;30.59
10718;BME280;13513;42.700;23.124;2023-10-31T11:30:52;92668.61;;;21.52;30.81
10718;BME280;13513;42.700;23.124;2023-10-31T11:33:22;92668.02;;;21.69;30.74
10718;BME280;13513;42.700;23.124;2023-10-31T11:35:51;92664.80;;;21.93;29.83
10718;BME280;13513;42.700;23.124;2023-10-31T11:38:27;92656.16;;;22.25;29.94
10718;BME280;13513;42.700;23.124;2023-10-31T11:43:21;92644.32;;;22.75;30.08
10718;BME280;13513;42.700;23.124;2023-10-31T11:45:49;92646.77;;;22.89;29.37
10718;BME280;13513;42.700;23.124;2023-10-31T11:48:16;92647.63;;;23.01;29.97
10718;BME280;13513;42.700;23.124;2023-10-31T11:50:44;92642.50;;;22.88;29.05
10718;BME280;13513;42.700;23.124;2023-10-31T11:53:13;92650.28;;;22.75;28.93
10718;BME280;13513;42.700;23.124;2023-10-31T11:55:46;92627.03;;;22.56;29.49
10718;BME280;13513;42.700;23.124;2023-10-31T11:58:18;92618.45;;;22.48;30.71
10718;BME280;13513;42.700;23.124;2023-10-31T12:00:51;92621.42;;;22.75;31.03
10718;BME280;13513;42.700;23.124;2023-10-31T12:03:20;92615.06;;;23.00;30.98
10718;BME280;13513;42.700;23.124;2023-10-31T12:05:58;92606.60;;;23.16;29.81
10718;BME280;13513;42.700;23.124;2023-10-31T12:08:32;92612.88;;;23.35;29.03
10718;BME280;13513;42.700;23.124;2023-10-31T12:11:08;92625.33;;;23.99;29.79
10718;BME280;13513;42.700;23.124;2023-10-31T12:13:41;92615.14;;;24.52;29.42
10718;BME280;13513;42.700;23.124;2023-10-31T12:16:09;92609.97;;;24.65;28.75
10718;BME280;13513;42.700;23.124;2023-10-31T12:18:39;92606.38;;;24.61;29.16
10718;BME280;13513;42.700;23.124;2023-10-31T12:21:06;92606.89;;;24.61;29.47
10718;BME280;13513;42.700;23.124;2023-10-31T12:23:38;92601.16;;;24.74;30.08
10718;BME280;13513;42.700;23.124;2023-10-31T12:26:05;92597.03;;;24.23;28.41
10718;BME280;13513;42.700;23.124;2023-10-31T12:28:33;92591.84;;;24.00;28.35
10718;BME280;13513;42.700;23.124;2023-10-31T12:31:02;92592.30;;;23.69;29.84
10718;BME280;13513;42.700;23.124;2023-10-31T12:33:29;92580.22;;;23.43;31.85
10718;BME280;13513;42.700;23.124;2023-10-31T12:35:58;92576.42;;;23.02;32.54
10718;BME280;13513;42.700;23.124;2023-10-31T12:38:27;92573.45;;;22.89;32.56
10718;BME280;13513;42.700;23.124;2023-10-31T12:40:56;92585.11;;;22.87;32.61
10718;BME280;13513;42.700;23.124;2023-10-31T12:43:24;92589.30;;;22.91;32.28
10718;BME280;13513;42.700;23.124;2023-10-31T12:45:52;92594.52;;;22.61;33.65
10718;BME280;13513;42.700;23.124;2023-10-31T12:48:23;92587.83;;;22.52;31.96
10718;BME280;13513;42.700;23.124;2023-10-31T12:50:54;92586.27;;;22.43;31.21
10718;BME280;13513;42.700;23.124;2023-10-31T12:53:25;92596.19;;;22.30;31.81
10718;BME280;13513;42.700;23.124;2023-10-31T12:55:53;92589.59;;;22.19;31.28